Time;durP1;ratioP1;P1;durP2;ratioP2;P2;SDS_P1;SDS_P2;PMS_P1;PMS_P2;Temp;Humidity;BMP_temperature;BMP_pressure;BME280_temperature;BME280_humidity;BME280_pressure;Samples;Min_cycle;Max_cycle;Signal;HPM_P1;HPM_P2
2024/04/08 00:03:04;;;;;;;11.48;4.20;;;;;;;19.54;90.87;100655.16;10130920;29;20060;-82
2024/04/08 00:08:28;;;;;;;12.27;4.20;;;;;;;19.58;92.74;100659.53;10130605;29;20064;-83
2024/04/08 00:13:50;;;;;;;8.60;3.75;;;;;;;19.65;92.09;100679.00;10107998;29;20048;-83
2024/04/08 00:19:14;;;;;;;12.48;3.88;;;;;;;19.72;91.03;100670.81;10143261;29;20521;-82
2024/04/08 00:24:38;;;;;;;14.60;3.85;;;;;;;19.73;88.08;100655.59;10143367;29;20104;-83
2024/04/08 00:30:00;;;;;;;9.23;3.00;;;;;;;19.73;87.22;100640.41;10143480;29;20136;-83
2024/04/08 00:35:23;;;;;;;10.38;3.40;;;;;;;19.74;85.50;100633.28;10143068;29;20113;-83
2024/04/08 00:40:47;;;;;;;14.63;3.88;;;;;;;19.76;85.09;100631.41;10169181;29;20100;-83
2024/04/08 00:46:22;;;;;;;13.00;4.00;;;;;;;19.76;86.87;100631.41;10155630;29;20063;-82
2024/04/08 00:51:46;;;;;;;11.90;3.65;;;;;;;19.76;88.39;100642.13;10157959;29;20056;-82
2024/04/08 00:57:15;;;;;;;13.35;3.65;;;;;;;19.82;91.05;100639.34;10149799;29;20052;-84
2024/04/08 01:02:38;;;;;;;10.13;3.63;;;;;;;19.86;92.63;100638.31;10164313;29;20060;-83
2024/04/08 01:08:02;;;;;;;13.00;3.63;;;;;;;19.87;94.35;100627.56;10175995;29;20402;-83
2024/04/08 01:13:26;;;;;;;13.35;3.80;;;;;;;19.86;91.08;100632.97;10150254;29;20056;-84
2024/04/08 01:18:52;;;;;;;13.63;3.40;;;;;;;19.83;88.46;100638.38;10150426;29;20052;-83
2024/04/08 01:24:16;;;;;;;13.35;4.05;;;;;;;19.89;89.02;100644.47;10162891;29;20060;-83
2024/04/08 01:29:39;;;;;;;16.85;3.50;;;;;;;19.92;89.65;100639.97;10175534;29;20085;-83
2024/04/08 01:35:01;;;;;;;11.35;3.58;;;;;;;19.92;91.18;100656.03;10149066;29;20063;-83
2024/04/08 01:40:25;;;;;;;18.25;3.83;;;;;;;19.94;93.15;100655.09;10149368;29;20056;-82
2024/04/08 01:45:48;;;;;;;16.98;4.35;;;;;;;19.96;93.25;100669.31;10174716;29;20048;-82
2024/04/08 01:51:10;;;;;;;12.68;3.78;;;;;;;19.99;94.14;100657.66;10196489;29;20054;-83
2024/04/08 01:56:35;;;;;;;13.60;3.20;;;;;;;19.96;93.66;100671.13;10187248;29;20044;-83
2024/04/08 02:01:58;;;;;;;17.15;4.28;;;;;;;19.97;94.40;100672.88;10200022;29;20091;-84
2024/04/08 02:07:21;;;;;;;14.70;4.80;;;;;;;19.93;95.74;100666.72;10213481;29;20504;-84
2024/04/08 02:12:46;;;;;;;13.18;3.75;;;;;;;19.95;96.00;100664.03;10200303;29;20059;-84
2024/04/08 02:18:09;;;;;;;15.02;3.58;;;;;;;19.87;93.98;100669.56;10162869;29;20138;-84
2024/04/08 02:23:32;;;;;;;12.30;3.97;;;;;;;19.84;94.72;100675.88;10146988;29;20051;-82
2024/04/08 02:28:58;;;;;;;17.52;3.78;;;;;;;19.90;95.23;100690.91;10159584;29;20074;-83
2024/04/08 02:34:21;;;;;;;10.05;3.60;;;;;;;19.92;95.38;100688.19;10147396;29;20052;-82
2024/04/08 02:39:43;;;;;;;15.13;4.35;;;;;;;19.92;96.46;100675.69;10146674;29;20071;-82
2024/04/08 02:45:08;;;;;;;17.23;4.40;;;;;;;19.99;97.86;100687.13;10146658;29;20056;-83
2024/04/08 02:50:31;;;;;;;14.85;4.57;;;;;;;20.00;99.09;100673.72;10163975;29;20047;-83
2024/04/08 02:56:00;;;;;;;22.23;5.43;;;;;;;19.95;100.00;100672.06;10210930;29;20071;-83
2024/04/08 03:01:24;;;;;;;12.90;4.53;;;;;;;19.92;100.00;100681.03;10198095;29;20055;-84
2024/04/08 03:06:47;;;;;;;11.73;3.88;;;;;;;19.89;100.00;100675.75;10210957;29;20118;-83
2024/04/08 03:12:09;;;;;;;20.77;4.57;;;;;;;19.94;100.00;100687.25;10184827;29;20099;-83
2024/04/08 03:17:33;;;;;;;13.65;4.45;;;;;;;19.85;100.00;100690.16;10184068;29;20066;-83
2024/04/08 03:22:56;;;;;;;12.88;4.22;;;;;;;19.82;100.00;100696.44;10183849;29;20051;-82
2024/04/08 03:28:18;;;;;;;16.88;4.60;;;;;;;19.84;100.00;100707.13;10183705;29;20059;-83
2024/04/08 03:33:43;;;;;;;12.55;4.20;;;;;;;19.88;100.00;100706.16;10196976;29;20059;-83
2024/04/08 03:39:06;;;;;;;15.65;4.18;;;;;;;19.85;100.00;100706.22;10183972;29;20052;-83
2024/04/08 03:44:28;;;;;;;16.60;4.78;;;;;;;19.87;100.00;100710.63;10181661;29;20055;-85
2024/04/08 03:49:54;;;;;;;17.35;4.43;;;;;;;19.94;100.00;100710.50;10143494;29;20056;-83
2024/04/08 03:55:17;;;;;;;15.65;5.05;;;;;;;19.86;100.00;100708.00;10150891;29;20064;-82
2024/04/08 04:00:39;;;;;;;12.65;4.20;;;;;;;19.89;100.00;100715.94;10155623;29;20052;-83
2024/04/08 04:06:04;;;;;;;11.02;4.50;;;;;;;19.88;100.00;100715.09;10155571;29;20056;-83
2024/04/08 04:11:27;;;;;;;20.33;4.75;;;;;;;19.82;100.00;100719.72;10168367;29;20111;-83
2024/04/08 04:16:51;;;;;;;17.23;4.32;;;;;;;19.84;100.00;100723.22;10155186;29;20147;-82
2024/04/08 04:22:15;;;;;;;15.90;4.50;;;;;;;19.90;100.00;100718.59;10154577;29;20094;-82
2024/04/08 04:27:38;;;;;;;13.55;4.10;;;;;;;19.91;100.00;100732.88;10140959;29;20609;-84
2024/04/08 04:33:01;;;;;;;13.57;3.83;;;;;;;19.96;100.00;100735.44;10141547;29;20124;-82
2024/04/08 04:38:26;;;;;;;15.93;4.45;;;;;;;19.98;100.00;100734.50;10141513;29;20052;-83
2024/04/08 04:43:48;;;;;;;13.35;3.95;;;;;;;19.94;100.00;100748.00;10166849;29;20056;-83
2024/04/08 04:49:11;;;;;;;19.42;5.07;;;;;;;19.94;100.00;100742.66;10140483;29;20382;-83
2024/04/08 04:54:35;;;;;;;19.90;4.38;;;;;;;19.94;100.00;100748.91;10166450;29;20056;-82
2024/04/08 05:01:44;;;;;;;12.40;4.03;;;;;;;20.07;100.00;100753.06;11390063;25;20382;-83
2024/04/08 05:07:09;;;;;;;16.38;4.75;;;;;;;20.14;100.00;100760.03;11363681;26;20060;-84
2024/04/08 05:12:33;;;;;;;14.80;4.22;;;;;;;20.24;100.00;100760.69;11363221;26;20074;-84
2024/04/08 05:18:00;;;;;;;14.98;4.15;;;;;;;20.26;100.00;100762.41;11354194;26;20026;-83
2024/04/08 05:23:25;;;;;;;20.67;4.50;;;;;;;20.22;100.00;100765.19;11363234;26;20074;-84
2024/04/08 05:28:49;;;;;;;21.65;4.80;;;;;;;20.31;100.00;100770.34;11338462;26;20013;-84
2024/04/08 05:34:17;;;;;;;13.95;4.50;;;;;;;20.38;100.00;100777.34;11362853;26;20046;-84
2024/04/08 05:39:41;;;;;;;17.53;4.00;;;;;;;20.51;100.00;100778.81;11336723;26;19998;-83
2024/04/08 05:45:05;;;;;;;15.63;4.70;;;;;;;20.63;100.00;100782.97;11362925;26;20004;-84
2024/04/08 05:50:33;;;;;;;17.27;3.85;;;;;;;20.67;100.00;100779.31;11361553;26;20005;-85
2024/04/08 05:55:57;;;;;;;17.37;4.57;;;;;;;20.76;100.00;100795.16;11336486;25;20703;-85
2024/04/08 06:01:21;;;;;;;15.70;3.83;;;;;;;20.79;100.00;100786.16;11336350;26;20006;-84
2024/04/08 06:06:49;;;;;;;13.23;3.55;;;;;;;20.82;96.12;100786.94;11361218;26;20002;-86
2024/04/08 06:12:15;;;;;;;14.27;3.72;;;;;;;20.90;93.37;100786.75;11307433;26;20030;-84
2024/04/08 06:17:39;;;;;;;16.88;3.92;;;;;;;20.80;92.79;100787.94;11313133;26;20373;-83
2024/04/08 06:23:06;;;;;;;11.25;3.38;;;;;;;20.84;95.10;100801.22;11229028;26;20024;-84
2024/04/08 06:28:30;;;;;;;9.85;3.97;;;;;;;21.11;93.05;100796.94;11302308;26;20010;-84
2024/04/08 06:33:54;;;;;;;12.40;3.53;;;;;;;21.34;90.46;100793.63;11327533;26;20030;-84
2024/04/08 06:39:22;;;;;;;17.13;5.22;;;;;;;21.61;87.74;100810.75;11323770;26;20075;-86
2024/04/08 06:44:50;;;;;;;13.85;3.30;;;;;;;21.63;83.89;100814.28;11323259;26;20014;-85
2024/04/08 06:50:14;;;;;;;25.92;9.70;;;;;;;21.63;86.07;100801.75;11352506;26;20009;-85
2024/04/08 06:55:41;;;;;;;17.05;5.70;;;;;;;21.79;87.90;100819.16;11328057;26;19998;-84
2024/04/08 07:01:07;;;;;;;13.00;4.03;;;;;;;21.77;84.11;100820.16;11302247;26;19995;-82
2024/04/08 07:06:31;;;;;;;15.07;5.55;;;;;;;21.76;84.34;100819.28;11302729;26;20022;-85
2024/04/08 07:12:01;;;;;;;16.27;5.55;;;;;;;21.86;83.98;100825.25;11301986;26;19998;-84
2024/04/08 07:17:25;;;;;;;11.02;3.75;;;;;;;21.98;84.33;100833.00;11326903;26;20950;-84
2024/04/08 07:22:49;;;;;;;12.48;3.35;;;;;;;22.03;81.94;100839.09;11327136;26;20008;-84
2024/04/08 07:28:16;;;;;;;13.85;3.28;;;;;;;21.92;79.90;100849.28;11326619;26;20035;-84
2024/04/08 07:33:40;;;;;;;17.67;4.60;;;;;;;21.94;79.90;100868.03;11301939;26;20002;-84
2024/04/08 07:39:05;;;;;;;17.15;3.53;;;;;;;22.08;80.00;100857.78;11301637;26;20031;-85
2024/04/08 07:44:31;;;;;;;15.48;4.03;;;;;;;22.54;78.65;100868.00;11327241;26;20012;-85
2024/04/08 07:49:57;;;;;;;17.07;3.77;;;;;;;22.75;75.45;100867.34;11277243;26;20078;-85
2024/04/08 07:55:21;;;;;;;15.23;3.22;;;;;;;22.99;75.67;100868.31;11325265;26;20454;-84
2024/04/08 08:00:58;;;;;;;13.55;3.78;;;;;;;22.88;72.43;100889.34;11251611;26;20043;-85
2024/04/08 08:06:22;;;;;;;16.57;3.70;;;;;;;22.80;70.30;100894.09;11276112;26;20002;-84
2024/04/08 08:11:47;;;;;;;12.95;3.45;;;;;;;22.78;71.42;100880.69;11274192;26;20035;-84
2024/04/08 08:17:13;;;;;;;13.10;3.60;;;;;;;22.61;70.78;100894.66;11275148;26;20702;-85
2024/04/08 08:22:38;;;;;;;14.40;3.67;;;;;;;22.64;70.54;100896.41;11239278;26;20438;-82
2024/04/08 08:28:02;;;;;;;15.10;3.03;;;;;;;22.76;68.05;100908.59;11273619;26;19998;-83
2024/04/08 08:33:29;;;;;;;11.05;3.13;;;;;;;23.13;65.14;100895.69;11248696;26;20002;-83
2024/04/08 08:38:54;;;;;;;13.98;3.08;;;;;;;23.97;52.70;100890.00;11248156;26;20083;-83
2024/04/08 08:44:19;;;;;;;10.43;3.00;;;;;;;24.86;48.11;100885.59;11273576;26;20403;-83
2024/04/08 08:49:47;;;;;;;9.75;2.63;;;;;;;25.51;45.54;100887.34;11272507;26;19998;-84
2024/04/08 08:55:11;;;;;;;;;;;;;;;25.94;44.47;100884.47;11246236;26;20002;-83
2024/04/08 09:00:40;;;;;;;16.38;3.72;;;;;;;26.33;44.50;100878.19;11244335;26;19931;-84
2024/04/08 09:06:07;;;;;;;11.23;3.05;;;;;;;26.61;43.99;100894.88;11273383;26;20028;-83
2024/04/08 09:11:31;;;;;;;7.95;1.95;;;;;;;27.03;43.41;100877.47;11248276;26;20530;-84
2024/04/08 09:17:07;;;;;;;15.50;2.85;;;;;;;27.10;42.53;100882.50;11248230;26;20039;-82
2024/04/08 09:22:34;;;;;;;11.73;3.05;;;;;;;26.54;43.52;100887.97;11273153;26;19998;-84
2024/04/08 09:27:59;;;;;;;11.65;2.03;;;;;;;26.21;42.70;100906.69;11247517;26;20056;-84
2024/04/08 09:33:24;;;;;;;13.57;3.22;;;;;;;26.10;43.55;100890.97;11272861;26;20003;-85
2024/04/08 09:38:53;;;;;;;15.10;3.60;;;;;;;26.37;46.36;100888.81;11248097;26;20005;-84
2024/04/08 09:44:20;;;;;;;8.57;2.65;;;;;;;26.58;44.83;100890.47;11248510;26;20002;-84
2024/04/08 09:49:45;;;;;;;12.27;2.55;;;;;;;26.88;43.01;100896.22;11279354;26;19999;-84
2024/04/08 09:55:13;;;;;;;11.35;2.53;;;;;;;27.47;41.93;100892.31;11272780;26;20705;-84
2024/04/08 10:00:42;;;;;;;10.77;2.30;;;;;;;27.75;39.80;100889.94;11250026;26;20772;-84
2024/04/08 10:06:09;;;;;;;13.50;3.33;;;;;;;27.99;38.79;100885.03;11275702;26;19999;-84
2024/04/08 10:11:37;;;;;;;11.52;2.45;;;;;;;28.23;37.66;100879.22;11254445;26;20015;-85
2024/04/08 10:17:02;;;;;;;11.10;2.75;;;;;;;28.41;37.44;100875.50;11278617;26;20021;-84
2024/04/08 10:22:31;;;;;;;6.75;2.42;;;;;;;28.54;37.35;100866.56;11252801;26;20339;-84
2024/04/08 10:28:06;;;;;;;10.13;2.53;;;;;;;28.38;37.12;100871.09;11300289;26;19998;-85
2024/04/08 10:33:31;;;;;;;11.27;2.88;;;;;;;27.70;37.35;100877.56;11284526;26;20055;-85
2024/04/08 10:38:59;;;;;;;8.60;2.47;;;;;;;27.60;37.92;100871.75;11228972;26;20039;-84
2024/04/08 10:44:27;;;;;;;12.05;2.50;;;;;;;27.70;37.42;100874.84;11252927;26;20003;-85
2024/04/08 10:49:53;;;;;;;6.88;2.33;;;;;;;27.91;36.53;100851.09;11277915;26;20801;-84
2024/04/08 10:55:18;;;;;;;5.78;2.30;;;;;;;27.84;35.76;100852.41;11252264;26;20013;-85
2024/04/08 11:00:48;;;;;;;15.48;2.55;;;;;;;27.66;37.46;100865.13;11254071;26;20017;-85
2024/04/08 11:06:12;;;;;;;13.57;2.83;;;;;;;27.38;38.53;100862.97;11278215;26;20319;-85
2024/04/08 11:11:36;;;;;;;14.88;3.08;;;;;;;27.18;39.85;100864.00;11252758;26;20462;-85
2024/04/08 11:17:09;;;;;;;11.48;3.05;;;;;;;26.67;40.88;100862.06;11277452;26;19998;-85
2024/04/08 11:22:33;;;;;;;12.30;2.95;;;;;;;26.53;41.67;100853.72;11252456;26;20453;-84
2024/04/08 11:27:57;;;;;;;11.07;2.72;;;;;;;26.19;42.21;100835.50;11276601;26;20103;-87
2024/04/08 11:33:30;;;;;;;14.38;3.25;;;;;;;26.26;42.20;100847.81;11277162;26;20089;-89
2024/04/08 11:38:54;;;;;;;8.90;2.53;;;;;;;26.49;41.74;100854.84;11277435;26;20076;-88
2024/04/08 11:44:24;;;;;;;11.52;2.58;;;;;;;26.45;41.29;100845.13;11277789;26;19998;-88
2024/04/08 11:49:51;;;;;;;11.65;3.00;;;;;;;26.23;41.28;100839.81;11276864;26;20075;-89
2024/04/08 11:55:16;;;;;;;;;;;;;;;26.37;40.64;100831.06;11276764;26;20022;-92
2024/04/08 12:00:42;;;;;;;11.52;2.80;;;;;;;26.14;41.38;100824.88;11251649;26;19961;-89
2024/04/08 12:06:12;;;;;;;8.40;2.60;;;;;;;25.69;43.06;100827.94;11238353;26;20709;-90
2024/04/08 12:11:36;;;;;;;14.55;3.15;;;;;;;25.44;44.46;100818.25;11251324;26;20010;-89
2024/04/08 12:17:01;;;;;;;15.02;3.08;;;;;;;25.09;45.76;100823.38;11297726;26;20003;-89
2024/04/08 12:22:28;;;;;;;11.65;3.15;;;;;;;24.74;47.90;100821.28;11274246;26;20471;-91
2024/04/08 12:27:52;;;;;;;16.40;3.10;;;;;;;24.65;49.06;100824.38;11266313;26;20002;-88
2024/04/08 12:33:16;;;;;;;15.77;3.63;;;;;;;24.49;48.99;100830.38;11248600;26;20072;-89
2024/04/08 12:38:43;;;;;;;18.50;3.15;;;;;;;24.47;49.76;100820.59;11250377;26;20451;-87
2024/04/08 12:44:09;;;;;;;13.83;3.20;;;;;;;24.41;51.29;100815.47;11250345;26;20009;-88
2024/04/08 12:49:33;;;;;;;11.75;3.03;;;;;;;24.51;51.43;100823.13;11219723;26;20007;-90
2024/04/08 12:55:00;;;;;;;11.88;3.13;;;;;;;24.18;53.10;100824.44;11275299;26;20035;-87
2024/04/08 13:00:24;;;;;;;11.40;3.03;;;;;;;23.64;53.36;100817.50;11274981;26;20088;-83
2024/04/08 13:05:49;;;;;;;9.50;3.20;;;;;;;23.51;52.07;100818.91;11274048;26;19999;-86
2024/04/08 13:11:16;;;;;;;10.55;2.30;;;;;;;23.57;52.53;100799.81;11248932;26;19998;-87
2024/04/08 13:16:40;;;;;;;14.98;3.58;;;;;;;23.69;50.98;100809.28;11273375;26;20011;-86
2024/04/08 13:22:04;;;;;;;11.57;2.80;;;;;;;23.77;50.56;100809.84;11255331;26;20055;-87
2024/04/08 13:27:32;;;;;;;14.82;3.13;;;;;;;23.76;49.21;100808.97;11255695;26;20331;-86
2024/04/08 13:32:56;;;;;;;16.50;2.72;;;;;;;23.66;48.28;100804.88;11256444;26;20003;-85
2024/04/08 13:38:20;;;;;;;11.30;2.50;;;;;;;23.66;47.79;100794.09;11280553;26;19998;-86
2024/04/08 13:43:47;;;;;;;8.20;2.47;;;;;;;23.74;46.60;100801.88;11231133;26;20035;-85
2024/04/08 13:49:11;;;;;;;15.88;3.08;;;;;;;23.63;47.21;100804.13;11255792;26;19999;-86
2024/04/08 13:54:36;;;;;;;14.10;3.58;;;;;;;23.47;48.97;100824.44;11279377;26;20040;-85
2024/04/08 14:00:04;;;;;;;10.52;3.00;;;;;;;23.66;50.20;100812.06;11278526;26;20002;-87
2024/04/08 14:05:34;;;;;;;17.00;3.28;;;;;;;23.65;49.96;100807.63;11277222;26;20071;-85
2024/04/08 14:10:58;;;;;;;10.45;2.85;;;;;;;23.46;49.22;100799.31;11278762;26;19998;-86
2024/04/08 14:16:25;;;;;;;9.40;2.40;;;;;;;23.44;47.71;100785.88;11279464;26;20027;-87
2024/04/08 14:21:49;;;;;;;9.52;2.17;;;;;;;23.33;46.61;100796.19;11254210;26;20458;-86
2024/04/08 14:27:14;;;;;;;11.80;3.17;;;;;;;23.30;46.12;100807.06;11279840;26;19998;-86
2024/04/08 14:32:42;;;;;;;12.23;2.92;;;;;;;23.42;46.67;100789.59;11276889;26;20348;-87
2024/04/08 14:38:07;;;;;;;12.93;3.03;;;;;;;23.33;46.45;100795.31;11228900;26;20003;-85
2024/04/08 14:43:31;;;;;;;11.25;2.80;;;;;;;23.08;46.94;100808.78;11267079;26;20042;-85
2024/04/08 14:48:59;;;;;;;10.20;2.60;;;;;;;22.93;48.73;100807.50;11274840;26;19998;-84
2024/04/08 14:54:23;;;;;;;;;;;;;;;22.85;48.76;100812.25;11251350;26;20034;-85
2024/04/08 14:59:48;;;;;;;13.27;3.17;;;;;;;22.60;49.42;100812.16;11299189;26;20248;-84
2024/04/08 15:05:15;;;;;;;16.42;3.47;;;;;;;22.29;53.27;100822.16;11301673;26;20009;-86
2024/04/08 15:10:39;;;;;;;12.00;3.58;;;;;;;22.01;56.54;100814.06;11294401;26;20002;-85
2024/04/08 15:16:03;;;;;;;12.50;4.10;;;;;;;21.81;60.18;100811.06;11277328;26;20467;-84
2024/04/08 15:21:31;;;;;;;12.10;3.22;;;;;;;21.58;63.63;100811.75;11292533;26;19995;-83
2024/04/08 15:26:55;;;;;;;12.75;3.78;;;;;;;21.41;67.40;100814.91;11298629;26;20012;-82
2024/04/08 15:32:19;;;;;;;12.95;4.00;;;;;;;21.41;68.70;100825.66;11322799;26;19998;-83
2024/04/08 15:37:47;;;;;;;12.25;3.45;;;;;;;21.39;70.68;100816.78;11299715;26;20342;-83
2024/04/08 15:43:11;;;;;;;14.52;3.67;;;;;;;21.33;72.07;100818.75;11297890;26;20093;-83
2024/04/08 15:48:36;;;;;;;16.85;4.03;;;;;;;21.23;73.96;100818.09;11324837;26;20078;-83
2024/04/08 15:54:06;;;;;;;11.73;4.03;;;;;;;21.10;76.57;100813.94;11298673;26;19998;-84
2024/04/08 15:59:30;;;;;;;15.13;3.90;;;;;;;20.95;80.37;100817.03;11298842;26;20006;-82
2024/04/08 16:04:55;;;;;;;13.80;4.15;;;;;;;20.84;83.11;100819.13;11324338;26;20002;-82
2024/04/08 16:10:22;;;;;;;15.40;4.35;;;;;;;20.77;84.16;100818.41;11298840;26;20002;-80
2024/04/08 16:15:52;;;;;;;13.30;4.10;;;;;;;20.62;87.11;100822.34;11322828;26;20074;-83
2024/04/08 16:21:22;;;;;;;15.30;3.72;;;;;;;20.44;89.36;100830.84;11323106;26;20008;-83
2024/04/08 16:26:49;;;;;;;16.48;5.15;;;;;;;20.35;92.62;100827.50;11323390;26;20013;-82
2024/04/08 16:32:13;;;;;;;14.13;3.67;;;;;;;20.21;94.70;100826.00;11324535;26;19998;-85
2024/04/08 16:37:37;;;;;;;13.70;3.88;;;;;;;20.15;95.01;100819.88;11299240;26;20016;-84
2024/04/08 16:43:04;;;;;;;23.10;4.03;;;;;;;20.14;94.87;100828.84;11298230;26;20012;-83
2024/04/08 16:48:29;;;;;;;12.52;5.00;;;;;;;19.99;96.14;100822.03;11323265;26;20006;-83
2024/04/08 16:53:53;;;;;;;15.35;5.53;;;;;;;19.97;94.63;100815.81;11346637;26;20440;-84
2024/04/08 16:59:20;;;;;;;16.38;5.13;;;;;;;19.86;97.10;100817.84;11313831;26;20035;-83
2024/04/08 17:04:45;;;;;;;16.00;4.70;;;;;;;19.82;97.65;100825.03;11335803;26;20002;-81
2024/04/08 17:10:09;;;;;;;21.50;6.82;;;;;;;19.76;100.00;100825.19;11326914;26;20042;-81
2024/04/08 17:15:37;;;;;;;26.40;5.68;;;;;;;19.66;100.00;100820.06;11282466;26;20002;-80
2024/04/08 17:21:03;;;;;;;21.25;5.78;;;;;;;19.59;100.00;100810.38;11300490;26;20022;-80
2024/04/08 17:26:27;;;;;;;29.85;6.07;;;;;;;19.55;100.00;100835.47;11326811;26;20017;-81
2024/04/08 17:31:54;;;;;;;22.17;5.70;;;;;;;19.56;100.00;100829.22;11301659;26;20049;-81
2024/04/08 17:37:19;;;;;;;25.03;6.07;;;;;;;19.52;100.00;100836.41;11300994;26;20449;-81
2024/04/08 17:42:44;;;;;;;24.80;6.40;;;;;;;19.55;100.00;100840.84;11324831;26;19994;-82
2024/04/08 17:48:11;;;;;;;22.23;6.03;;;;;;;19.53;100.00;100854.25;11325617;26;20002;-81
2024/04/08 17:53:38;;;;;;;20.38;5.70;;;;;;;19.46;100.00;100849.91;11300331;26;20014;-85
2024/04/08 17:59:02;;;;;;;21.13;5.63;;;;;;;19.39;100.00;100864.28;11298888;26;20075;-81
2024/04/08 18:04:29;;;;;;;16.35;5.25;;;;;;;19.39;100.00;100870.53;11325542;26;20902;-83
2024/04/08 18:09:55;;;;;;;17.75;5.63;;;;;;;19.38;100.00;100878.59;11333959;26;20010;-82
2024/04/08 18:15:20;;;;;;;18.38;5.13;;;;;;;19.34;100.00;100884.94;11331471;26;20002;-80
2024/04/08 18:20:47;;;;;;;16.05;5.00;;;;;;;19.33;100.00;100883.16;11231765;26;20079;-82
2024/04/08 18:26:13;;;;;;;21.65;5.63;;;;;;;19.37;100.00;100890.22;11332529;26;20002;-83
2024/04/08 18:31:38;;;;;;;15.05;4.82;;;;;;;19.38;100.00;100887.50;11304096;26;19998;-82
2024/04/08 18:37:06;;;;;;;21.50;5.50;;;;;;;19.37;100.00;100900.91;11331858;26;20002;-81
2024/04/08 18:42:30;;;;;;;19.73;6.73;;;;;;;19.38;100.00;100902.69;11331672;26;20383;-82
2024/04/08 18:47:54;;;;;;;24.33;5.05;;;;;;;19.46;100.00;100906.16;11287285;26;19998;-81
2024/04/08 18:53:22;;;;;;;27.73;6.45;;;;;;;19.49;100.00;100901.59;11330567;26;20021;-81
2024/04/08 18:58:46;;;;;;;20.13;5.28;;;;;;;19.51;100.00;100906.94;11305129;26;20051;-81
2024/04/08 19:04:11;;;;;;;19.67;5.95;;;;;;;19.57;100.00;100904.16;11327551;26;20009;-80
2024/04/08 19:09:39;;;;;;;20.50;5.70;;;;;;;19.61;100.00;100921.06;11279962;26;20010;-80
2024/04/08 19:15:03;;;;;;;17.90;4.43;;;;;;;19.64;100.00;100913.84;11289318;26;20075;-81
2024/04/08 19:20:28;;;;;;;19.13;6.07;;;;;;;19.66;100.00;100925.41;11313568;26;20002;-79
2024/04/08 19:26:00;;;;;;;22.95;5.25;;;;;;;19.78;100.00;100918.91;11305028;26;20029;-80
2024/04/08 19:31:24;;;;;;;31.48;6.50;;;;;;;19.76;100.00;100937.69;11330506;26;20002;-82
2024/04/08 19:36:49;;;;;;;18.13;5.28;;;;;;;19.82;100.00;100945.63;11300036;26;20018;-82
2024/04/08 19:42:16;;;;;;;16.88;4.97;;;;;;;19.90;100.00;100941.00;11319692;26;20278;-81
2024/04/08 19:47:42;;;;;;;21.20;5.20;;;;;;;19.87;100.00;100937.50;11374075;25;19998;-81
2024/04/08 19:53:07;;;;;;;22.90;5.72;;;;;;;19.93;100.00;100942.75;11278160;26;20009;-81
2024/04/08 19:58:35;;;;;;;23.08;5.93;;;;;;;20.02;100.00;100934.50;11229177;26;20003;-81
2024/04/08 20:03:59;;;;;;;16.40;5.10;;;;;;;20.04;100.00;100926.44;11324867;26;20070;-81
2024/04/08 20:09:23;;;;;;;16.60;4.78;;;;;;;20.05;100.00;100931.78;11324960;26;19994;-81
2024/04/08 20:14:52;;;;;;;21.63;5.88;;;;;;;20.10;100.00;100929.00;11324903;26;20030;-81
2024/04/08 20:20:16;;;;;;;19.73;5.00;;;;;;;20.07;100.00;100905.84;11323710;26;20039;-81
2024/04/08 20:25:48;;;;;;;21.08;4.80;;;;;;;20.06;100.00;100893.34;11349161;26;20006;-81
2024/04/08 20:31:15;;;;;;;18.83;4.20;;;;;;;19.99;100.00;100905.09;11322964;26;20006;-82
2024/04/08 20:36:39;;;;;;;16.55;4.68;;;;;;;19.96;100.00;100897.09;11349229;26;20078;-82
2024/04/08 20:42:03;;;;;;;22.58;4.78;;;;;;;19.98;100.00;100894.41;11324345;26;20452;-82
2024/04/08 20:47:30;;;;;;;22.25;6.07;;;;;;;19.99;100.00;100891.69;11348417;26;20002;-82
2024/04/08 20:52:57;;;;;;;18.48;5.55;;;;;;;20.11;100.00;100899.47;11296545;26;20511;-81
2024/04/08 20:58:21;;;;;;;22.58;5.00;;;;;;;20.15;100.00;100895.81;11297104;26;19998;-79
2024/04/08 21:03:48;;;;;;;25.30;5.75;;;;;;;20.14;100.00;100890.50;11297046;26;20502;-80
2024/04/08 21:09:16;;;;;;;16.33;4.77;;;;;;;20.11;100.00;100895.91;11322327;26;19998;-81
2024/04/08 21:14:41;;;;;;;;;;;;;;;20.19;100.00;100885.91;11298666;26;19999;-82
2024/04/08 21:20:09;;;;;;;18.25;4.60;;;;;;;20.16;100.00;100894.00;11322382;26;19923;-82
2024/04/08 21:25:35;;;;;;;21.25;5.55;;;;;;;20.16;100.00;100899.38;11322699;26;20541;-82
2024/04/08 21:30:59;;;;;;;21.45;5.38;;;;;;;20.16;100.00;100894.88;11322387;26;20338;-82
2024/04/08 21:36:27;;;;;;;20.67;5.75;;;;;;;20.20;100.00;100890.38;11347487;26;20002;-82
2024/04/08 21:41:51;;;;;;;18.92;4.82;;;;;;;20.21;100.00;100897.50;11351890;26;19998;-82
2024/04/08 21:47:16;;;;;;;22.17;5.15;;;;;;;20.19;100.00;100894.84;11329316;26;20536;-82
2024/04/08 21:52:43;;;;;;;20.60;5.40;;;;;;;20.25;100.00;100885.78;11328255;26;20010;-81
2024/04/08 21:58:09;;;;;;;15.73;4.93;;;;;;;20.29;100.00;100884.78;11328554;26;20013;-82
2024/04/08 22:03:33;;;;;;;16.48;5.25;;;;;;;20.27;100.00;100875.91;11328794;26;20319;-81
2024/04/08 22:09:02;;;;;;;15.02;4.60;;;;;;;20.29;100.00;100882.97;11303696;26;20002;-82
2024/04/08 22:14:27;;;;;;;21.35;5.18;;;;;;;20.27;100.00;100878.59;11302978;26;19998;-82
2024/04/08 22:19:52;;;;;;;18.88;5.47;;;;;;;20.26;100.00;100872.34;11328207;26;20032;-82
2024/04/08 22:25:21;;;;;;;21.95;5.35;;;;;;;20.28;100.00;100873.16;11328138;26;20002;-82
2024/04/08 22:30:45;;;;;;;19.77;5.93;;;;;;;20.27;100.00;100875.91;11302908;26;20052;-82
2024/04/08 22:36:09;;;;;;;16.45;5.13;;;;;;;20.32;100.00;100875.81;11354056;26;20119;-82
2024/04/08 22:41:36;;;;;;;18.65;4.88;;;;;;;20.32;100.00;100873.13;11352881;26;20435;-83
2024/04/08 22:47:02;;;;;;;17.17;5.00;;;;;;;20.31;100.00;100869.56;11353725;26;20051;-82
2024/04/08 22:52:26;;;;;;;19.48;5.55;;;;;;;20.28;100.00;100840.13;11302363;26;20013;-83
2024/04/08 22:57:53;;;;;;;16.40;4.90;;;;;;;20.28;100.00;100850.88;11303328;26;20002;-82
2024/04/08 23:03:18;;;;;;;19.23;4.78;;;;;;;20.26;100.00;100850.00;11328655;26;20885;-83
2024/04/08 23:08:42;;;;;;;16.27;5.07;;;;;;;20.27;100.00;100843.75;11302098;26;20006;-82
2024/04/08 23:14:09;;;;;;;11.70;4.65;;;;;;;20.25;100.00;100841.09;11301998;26;20013;-82
2024/04/08 23:19:33;;;;;;;16.20;5.23;;;;;;;20.26;100.00;100837.50;11351941;26;19998;-82
2024/04/08 23:24:57;;;;;;;24.65;5.47;;;;;;;20.28;100.00;100848.19;11351767;26;19998;-82
2024/04/08 23:30:24;;;;;;;20.55;6.28;;;;;;;20.31;100.00;100837.38;11351791;26;20009;-83
2024/04/08 23:35:48;;;;;;;16.83;5.50;;;;;;;20.32;100.00;100839.13;11326848;26;20029;-83
2024/04/08 23:41:13;;;;;;;18.42;5.20;;;;;;;20.32;100.00;100827.53;11352127;26;19998;-81
2024/04/08 23:46:40;;;;;;;19.58;5.72;;;;;;;20.35;100.00;100835.56;11351185;26;20002;-81
2024/04/08 23:52:04;;;;;;;22.10;5.33;;;;;;;20.34;100.00;100832.00;11300757;26;20002;-80
2024/04/08 23:57:28;;;;;;;17.73;6.35;;;;;;;20.31;100.00;100823.97;11325288;26;20002;-81
